Stamford, United Kingdom
Current Conditions -  °F | °C
As of 4:50 AM on Thursday 18 Dec 2014 (Local Time) from EGXT Reporting Station
Broken Clouds Broken Clouds  
Wind Chill: 54°   Ceiling: 2200
Heat Index: 54°   Visibility: 6mi
Dew Point: 52°   Wind: 20mph
Humidity: 94%   Direction: 240°WSW
Pressure: 29.68"   Gusts: NA
Location:  52.65°N, 0.48°W
Report Text: EGXT 180450Z AUTO 24017KT 9999 FEW009/// BKN022/// 12/11 Q1005
Loading
Personal Weather Stations






























Interactive Weather Map New forecast layout! Learn more

10-Day Weather Forecast

Advertisements
Track Severe Weather on mobile